sensor_id;sensor_type;location;lat;lon;timestamp;P1;durP1;ratioP1;P2;durP2;ratioP2
44476;SDS011;30180;44.788;10.366;2023-04-01T00:00:48;10.60;;;3.80;;
44476;SDS011;30180;44.788;10.366;2023-04-01T00:03:17;8.55;;;3.35;;
44476;SDS011;30180;44.788;10.366;2023-04-01T00:05:45;9.73;;;3.67;;
44476;SDS011;30180;44.788;10.366;2023-04-01T00:08:15;8.93;;;3.60;;
44476;SDS011;30180;44.788;10.366;2023-04-01T00:10:44;6.80;;;3.50;;
44476;SDS011;30180;44.788;10.366;2023-04-01T00:13:12;8.27;;;3.50;;
44476;SDS011;30180;44.788;10.366;2023-04-01T00:15:41;7.10;;;3.22;;
44476;SDS011;30180;44.788;10.366;2023-04-01T00:18:10;8.50;;;3.38;;
44476;SDS011;30180;44.788;10.366;2023-04-01T00:20:42;8.05;;;2.90;;
44476;SDS011;30180;44.788;10.366;2023-04-01T00:23:11;9.55;;;4.07;;
44476;SDS011;30180;44.788;10.366;2023-04-01T00:25:41;8.25;;;3.25;;
44476;SDS011;30180;44.788;10.366;2023-04-01T00:28:11;7.47;;;3.33;;
44476;SDS011;30180;44.788;10.366;2023-04-01T00:30:39;10.75;;;2.97;;
44476;SDS011;30180;44.788;10.366;2023-04-01T00:33:08;9.55;;;3.00;;
44476;SDS011;30180;44.788;10.366;2023-04-01T00:35:37;8.23;;;3.70;;
44476;SDS011;30180;44.788;10.366;2023-04-01T00:38:05;6.53;;;2.90;;
44476;SDS011;30180;44.788;10.366;2023-04-01T00:40:34;8.52;;;3.63;;
44476;SDS011;30180;44.788;10.366;2023-04-01T00:43:08;10.18;;;3.95;;
44476;SDS011;30180;44.788;10.366;2023-04-01T00:45:40;7.72;;;3.50;;
44476;SDS011;30180;44.788;10.366;2023-04-01T00:48:11;8.98;;;3.63;;
44476;SDS011;30180;44.788;10.366;2023-04-01T00:50:43;9.43;;;3.42;;
44476;SDS011;30180;44.788;10.366;2023-04-01T00:53:14;8.52;;;3.17;;
44476;SDS011;30180;44.788;10.366;2023-04-01T00:55:46;9.67;;;3.17;;
44476;SDS011;30180;44.788;10.366;2023-04-01T00:58:20;6.97;;;3.13;;
44476;SDS011;30180;44.788;10.366;2023-04-01T01:00:51;7.80;;;3.20;;
44476;SDS011;30180;44.788;10.366;2023-04-01T01:03:20;6.68;;;2.97;;
44476;SDS011;30180;44.788;10.366;2023-04-01T01:08:39;7.60;;;3.05;;
44476;SDS011;30180;44.788;10.366;2023-04-01T01:11:26;5.63;;;2.70;;
44476;SDS011;30180;44.788;10.366;2023-04-01T01:14:12;7.32;;;3.20;;
44476;SDS011;30180;44.788;10.366;2023-04-01T01:16:52;7.80;;;3.08;;
44476;SDS011;30180;44.788;10.366;2023-04-01T01:19:32;7.32;;;3.10;;
44476;SDS011;30180;44.788;10.366;2023-04-01T01:25:18;7.05;;;3.00;;
44476;SDS011;30180;44.788;10.366;2023-04-01T01:28:02;6.00;;;2.83;;
44476;SDS011;30180;44.788;10.366;2023-04-01T01:30:44;9.25;;;2.88;;
44476;SDS011;30180;44.788;10.366;2023-04-01T01:33:24;6.78;;;2.70;;
44476;SDS011;30180;44.788;10.366;2023-04-01T01:36:03;8.20;;;3.60;;
44476;SDS011;30180;44.788;10.366;2023-04-01T01:38:34;8.75;;;3.20;;
44476;SDS011;30180;44.788;10.366;2023-04-01T01:41:04;7.03;;;3.00;;
44476;SDS011;30180;44.788;10.366;2023-04-01T01:43:36;7.05;;;2.75;;
44476;SDS011;30180;44.788;10.366;2023-04-01T01:46:09;8.18;;;3.30;;
44476;SDS011;30180;44.788;10.366;2023-04-01T01:48:42;9.07;;;3.00;;
44476;SDS011;30180;44.788;10.366;2023-04-01T01:51:13;9.15;;;3.08;;
44476;SDS011;30180;44.788;10.366;2023-04-01T01:53:42;7.22;;;2.90;;
44476;SDS011;30180;44.788;10.366;2023-04-01T01:56:10;6.15;;;2.83;;
44476;SDS011;30180;44.788;10.366;2023-04-01T01:58:41;7.93;;;3.03;;
44476;SDS011;30180;44.788;10.366;2023-04-01T02:01:13;7.03;;;2.83;;
44476;SDS011;30180;44.788;10.366;2023-04-01T02:03:44;7.88;;;2.83;;
44476;SDS011;30180;44.788;10.366;2023-04-01T02:06:17;6.22;;;2.75;;
44476;SDS011;30180;44.788;10.366;2023-04-01T02:08:49;6.22;;;2.85;;
44476;SDS011;30180;44.788;10.366;2023-04-01T02:11:21;6.05;;;2.95;;
44476;SDS011;30180;44.788;10.366;2023-04-01T02:13:56;6.18;;;2.80;;
44476;SDS011;30180;44.788;10.366;2023-04-01T02:16:34;6.60;;;3.22;;
44476;SDS011;30180;44.788;10.366;2023-04-01T02:19:07;6.28;;;3.08;;
44476;SDS011;30180;44.788;10.366;2023-04-01T02:21:40;7.13;;;3.20;;
44476;SDS011;30180;44.788;10.366;2023-04-01T02:24:10;7.53;;;2.88;;
44476;SDS011;30180;44.788;10.366;2023-04-01T02:26:40;6.35;;;2.85;;
44476;SDS011;30180;44.788;10.366;2023-04-01T02:29:09;7.57;;;2.75;;
44476;SDS011;30180;44.788;10.366;2023-04-01T02:31:39;7.80;;;3.00;;
44476;SDS011;30180;44.788;10.366;2023-04-01T02:34:08;7.82;;;3.05;;
44476;SDS011;30180;44.788;10.366;2023-04-01T02:36:36;6.28;;;2.67;;
44476;SDS011;30180;44.788;10.366;2023-04-01T02:39:07;8.05;;;3.22;;
44476;SDS011;30180;44.788;10.366;2023-04-01T02:41:38;6.50;;;3.10;;
44476;SDS011;30180;44.788;10.366;2023-04-01T02:44:07;5.70;;;2.40;;
44476;SDS011;30180;44.788;10.366;2023-04-01T02:46:36;6.38;;;3.05;;
44476;SDS011;30180;44.788;10.366;2023-04-01T02:49:04;5.95;;;2.92;;
44476;SDS011;30180;44.788;10.366;2023-04-01T02:51:33;6.25;;;2.75;;
44476;SDS011;30180;44.788;10.366;2023-04-01T02:54:03;7.10;;;2.50;;
44476;SDS011;30180;44.788;10.366;2023-04-01T02:56:31;6.78;;;2.92;;
44476;SDS011;30180;44.788;10.366;2023-04-01T02:58:59;6.00;;;2.60;;
44476;SDS011;30180;44.788;10.366;2023-04-01T03:01:28;7.15;;;2.75;;
44476;SDS011;30180;44.788;10.366;2023-04-01T03:03:56;7.57;;;3.10;;
44476;SDS011;30180;44.788;10.366;2023-04-01T03:06:24;6.30;;;3.17;;
44476;SDS011;30180;44.788;10.366;2023-04-01T03:08:52;6.40;;;2.88;;
44476;SDS011;30180;44.788;10.366;2023-04-01T03:11:22;7.60;;;3.10;;
44476;SDS011;30180;44.788;10.366;2023-04-01T03:13:52;7.72;;;3.33;;
44476;SDS011;30180;44.788;10.366;2023-04-01T03:16:20;6.90;;;2.97;;
44476;SDS011;30180;44.788;10.366;2023-04-01T03:18:48;5.53;;;2.72;;
44476;SDS011;30180;44.788;10.366;2023-04-01T03:21:19;7.50;;;2.93;;
44476;SDS011;30180;44.788;10.366;2023-04-01T03:23:48;7.75;;;3.30;;
44476;SDS011;30180;44.788;10.366;2023-04-01T03:26:17;5.57;;;2.78;;
44476;SDS011;30180;44.788;10.366;2023-04-01T03:28:47;5.60;;;2.70;;
44476;SDS011;30180;44.788;10.366;2023-04-01T03:31:15;7.07;;;3.10;;
44476;SDS011;30180;44.788;10.366;2023-04-01T03:33:45;5.57;;;2.75;;
44476;SDS011;30180;44.788;10.366;2023-04-01T03:36:13;6.35;;;2.72;;
44476;SDS011;30180;44.788;10.366;2023-04-01T03:38:42;5.65;;;2.80;;
44476;SDS011;30180;44.788;10.366;2023-04-01T03:41:11;6.57;;;3.20;;
44476;SDS011;30180;44.788;10.366;2023-04-01T03:43:40;6.63;;;2.90;;
44476;SDS011;30180;44.788;10.366;2023-04-01T03:46:10;7.40;;;2.67;;
44476;SDS011;30180;44.788;10.366;2023-04-01T03:48:38;8.20;;;3.03;;
44476;SDS011;30180;44.788;10.366;2023-04-01T03:51:07;5.22;;;2.40;;
44476;SDS011;30180;44.788;10.366;2023-04-01T03:53:35;8.13;;;2.97;;
44476;SDS011;30180;44.788;10.366;2023-04-01T03:56:04;5.45;;;2.40;;
44476;SDS011;30180;44.788;10.366;2023-04-01T03:58:34;7.10;;;3.03;;
44476;SDS011;30180;44.788;10.366;2023-04-01T04:01:02;5.32;;;2.28;;
44476;SDS011;30180;44.788;10.366;2023-04-01T04:03:32;6.05;;;2.70;;
44476;SDS011;30180;44.788;10.366;2023-04-01T04:06:00;5.68;;;2.65;;
44476;SDS011;30180;44.788;10.366;2023-04-01T04:08:28;6.05;;;2.88;;
44476;SDS011;30180;44.788;10.366;2023-04-01T04:10:57;7.32;;;2.65;;
44476;SDS011;30180;44.788;10.366;2023-04-01T04:13:25;6.18;;;2.42;;
44476;SDS011;30180;44.788;10.366;2023-04-01T04:15:53;5.97;;;2.38;;
44476;SDS011;30180;44.788;10.366;2023-04-01T04:18:21;6.25;;;2.97;;
44476;SDS011;30180;44.788;10.366;2023-04-01T04:20:51;6.95;;;3.10;;
44476;SDS011;30180;44.788;10.366;2023-04-01T04:23:19;5.47;;;2.80;;
44476;SDS011;30180;44.788;10.366;2023-04-01T04:25:54;5.30;;;2.60;;
44476;SDS011;30180;44.788;10.366;2023-04-01T04:28:24;5.53;;;2.38;;
44476;SDS011;30180;44.788;10.366;2023-04-01T04:30:53;6.43;;;2.50;;
44476;SDS011;30180;44.788;10.366;2023-04-01T04:33:22;6.82;;;2.80;;
44476;SDS011;30180;44.788;10.366;2023-04-01T04:35:54;7.28;;;2.75;;
44476;SDS011;30180;44.788;10.366;2023-04-01T04:38:23;6.88;;;2.80;;
44476;SDS011;30180;44.788;10.366;2023-04-01T04:40:52;6.43;;;2.30;;
44476;SDS011;30180;44.788;10.366;2023-04-01T04:43:20;4.45;;;2.50;;
44476;SDS011;30180;44.788;10.366;2023-04-01T04:45:49;4.75;;;2.03;;
44476;SDS011;30180;44.788;10.366;2023-04-01T04:48:17;6.43;;;2.50;;
44476;SDS011;30180;44.788;10.366;2023-04-01T04:50:47;5.88;;;2.50;;
44476;SDS011;30180;44.788;10.366;2023-04-01T04:53:18;5.77;;;2.10;;
44476;SDS011;30180;44.788;10.366;2023-04-01T04:55:47;5.13;;;2.28;;
44476;SDS011;30180;44.788;10.366;2023-04-01T04:58:17;6.22;;;2.38;;
44476;SDS011;30180;44.788;10.366;2023-04-01T05:00:46;5.28;;;2.53;;
44476;SDS011;30180;44.788;10.366;2023-04-01T05:03:14;8.35;;;2.70;;
44476;SDS011;30180;44.788;10.366;2023-04-01T05:05:47;5.10;;;2.33;;
44476;SDS011;30180;44.788;10.366;2023-04-01T05:08:18;5.97;;;2.53;;
44476;SDS011;30180;44.788;10.366;2023-04-01T05:10:46;6.95;;;2.88;;
44476;SDS011;30180;44.788;10.366;2023-04-01T05:13:15;5.70;;;2.60;;
44476;SDS011;30180;44.788;10.366;2023-04-01T05:15:43;4.97;;;2.67;;
44476;SDS011;30180;44.788;10.366;2023-04-01T05:18:11;5.63;;;2.63;;
44476;SDS011;30180;44.788;10.366;2023-04-01T05:20:45;4.25;;;2.13;;
44476;SDS011;30180;44.788;10.366;2023-04-01T05:23:14;5.55;;;2.17;;
44476;SDS011;30180;44.788;10.366;2023-04-01T05:25:44;6.25;;;2.42;;
44476;SDS011;30180;44.788;10.366;2023-04-01T05:28:12;4.82;;;2.50;;
44476;SDS011;30180;44.788;10.366;2023-04-01T05:30:41;6.53;;;2.63;;
44476;SDS011;30180;44.788;10.366;2023-04-01T05:33:11;5.10;;;2.30;;
44476;SDS011;30180;44.788;10.366;2023-04-01T05:35:40;5.75;;;2.22;;
44476;SDS011;30180;44.788;10.366;2023-04-01T05:38:08;5.55;;;2.13;;
44476;SDS011;30180;44.788;10.366;2023-04-01T05:40:36;5.57;;;2.50;;
44476;SDS011;30180;44.788;10.366;2023-04-01T05:43:06;5.70;;;2.63;;
44476;SDS011;30180;44.788;10.366;2023-04-01T05:45:34;4.30;;;1.92;;
44476;SDS011;30180;44.788;10.366;2023-04-01T05:48:02;5.35;;;2.20;;
44476;SDS011;30180;44.788;10.366;2023-04-01T05:50:31;3.45;;;1.90;;
44476;SDS011;30180;44.788;10.366;2023-04-01T05:52:59;5.78;;;2.70;;
44476;SDS011;30180;44.788;10.366;2023-04-01T05:55:28;6.13;;;2.50;;
44476;SDS011;30180;44.788;10.366;2023-04-01T05:57:56;5.13;;;2.50;;
44476;SDS011;30180;44.788;10.366;2023-04-01T06:00:26;5.05;;;2.30;;
44476;SDS011;30180;44.788;10.366;2023-04-01T06:02:54;3.97;;;2.05;;
44476;SDS011;30180;44.788;10.366;2023-04-01T06:07:58;4.78;;;2.63;;
44476;SDS011;30180;44.788;10.366;2023-04-01T06:10:33;4.63;;;2.13;;
44476;SDS011;30180;44.788;10.366;2023-04-01T06:13:09;4.93;;;2.22;;
44476;SDS011;30180;44.788;10.366;2023-04-01T06:15:48;4.60;;;1.95;;
44476;SDS011;30180;44.788;10.366;2023-04-01T06:18:36;4.35;;;2.15;;
44476;SDS011;30180;44.788;10.366;2023-04-01T06:21:31;4.95;;;2.70;;
44476;SDS011;30180;44.788;10.366;2023-04-01T06:24:13;4.40;;;2.15;;
44476;SDS011;30180;44.788;10.366;2023-04-01T06:26:52;4.82;;;2.47;;
44476;SDS011;30180;44.788;10.366;2023-04-01T06:35:24;4.28;;;2.15;;
44476;SDS011;30180;44.788;10.366;2023-04-01T06:38:06;4.53;;;2.30;;
44476;SDS011;30180;44.788;10.366;2023-04-01T06:40:50;4.30;;;2.20;;
44476;SDS011;30180;44.788;10.366;2023-04-01T06:43:29;4.30;;;2.13;;
44476;SDS011;30180;44.788;10.366;2023-04-01T06:46:09;6.53;;;2.55;;
44476;SDS011;30180;44.788;10.366;2023-04-01T06:48:53;5.43;;;2.28;;
44476;SDS011;30180;44.788;10.366;2023-04-01T06:51:32;4.85;;;2.42;;
44476;SDS011;30180;44.788;10.366;2023-04-01T06:54:09;4.55;;;2.20;;
44476;SDS011;30180;44.788;10.366;2023-04-01T06:56:41;6.68;;;2.25;;
44476;SDS011;30180;44.788;10.366;2023-04-01T06:59:14;3.88;;;2.10;;
44476;SDS011;30180;44.788;10.366;2023-04-01T07:01:45;5.28;;;2.67;;
44476;SDS011;30180;44.788;10.366;2023-04-01T07:04:19;6.10;;;1.98;;
44476;SDS011;30180;44.788;10.366;2023-04-01T07:06:52;7.18;;;2.75;;
44476;SDS011;30180;44.788;10.366;2023-04-01T07:09:24;4.93;;;2.38;;
44476;SDS011;30180;44.788;10.366;2023-04-01T07:11:56;4.22;;;2.38;;
44476;SDS011;30180;44.788;10.366;2023-04-01T07:14:30;4.53;;;2.30;;
44476;SDS011;30180;44.788;10.366;2023-04-01T07:17:03;4.22;;;2.08;;
44476;SDS011;30180;44.788;10.366;2023-04-01T07:19:36;5.57;;;2.47;;
44476;SDS011;30180;44.788;10.366;2023-04-01T07:22:14;5.53;;;2.55;;
44476;SDS011;30180;44.788;10.366;2023-04-01T07:27:20;6.65;;;2.53;;
44476;SDS011;30180;44.788;10.366;2023-04-01T07:29:48;6.85;;;2.55;;
44476;SDS011;30180;44.788;10.366;2023-04-01T07:32:18;5.47;;;2.38;;
44476;SDS011;30180;44.788;10.366;2023-04-01T07:34:59;5.35;;;2.25;;
44476;SDS011;30180;44.788;10.366;2023-04-01T07:37:37;5.25;;;2.45;;
44476;SDS011;30180;44.788;10.366;2023-04-01T07:40:14;5.60;;;2.30;;
44476;SDS011;30180;44.788;10.366;2023-04-01T07:42:53;3.97;;;2.30;;
44476;SDS011;30180;44.788;10.366;2023-04-01T07:45:34;5.82;;;2.08;;
44476;SDS011;30180;44.788;10.366;2023-04-01T07:48:13;4.63;;;2.30;;
44476;SDS011;30180;44.788;10.366;2023-04-01T07:50:53;5.35;;;2.42;;
44476;SDS011;30180;44.788;10.366;2023-04-01T07:53:30;4.60;;;2.35;;
44476;SDS011;30180;44.788;10.366;2023-04-01T07:56:05;4.85;;;2.35;;
44476;SDS011;30180;44.788;10.366;2023-04-01T07:58:40;5.13;;;2.38;;
44476;SDS011;30180;44.788;10.366;2023-04-01T08:01:20;3.97;;;2.13;;
44476;SDS011;30180;44.788;10.366;2023-04-01T08:03:57;4.07;;;2.00;;
44476;SDS011;30180;44.788;10.366;2023-04-01T08:06:44;5.03;;;2.05;;
44476;SDS011;30180;44.788;10.366;2023-04-01T08:09:20;4.50;;;2.00;;
44476;SDS011;30180;44.788;10.366;2023-04-01T08:12:02;3.85;;;2.47;;
44476;SDS011;30180;44.788;10.366;2023-04-01T08:14:41;4.28;;;2.10;;
44476;SDS011;30180;44.788;10.366;2023-04-01T08:17:16;5.78;;;2.17;;
44476;SDS011;30180;44.788;10.366;2023-04-01T08:19:53;7.93;;;2.40;;
44476;SDS011;30180;44.788;10.366;2023-04-01T08:22:30;5.03;;;2.28;;
44476;SDS011;30180;44.788;10.366;2023-04-01T08:25:05;9.10;;;2.65;;
44476;SDS011;30180;44.788;10.366;2023-04-01T08:27:39;7.88;;;2.60;;
44476;SDS011;30180;44.788;10.366;2023-04-01T08:30:15;20.52;;;2.63;;
44476;SDS011;30180;44.788;10.366;2023-04-01T08:32:47;16.05;;;2.65;;
44476;SDS011;30180;44.788;10.366;2023-04-01T08:35:21;18.00;;;3.47;;
44476;SDS011;30180;44.788;10.366;2023-04-01T08:38:01;21.48;;;3.25;;
44476;SDS011;30180;44.788;10.366;2023-04-01T08:49:26;26.10;;;4.55;;
44476;SDS011;30180;44.788;10.366;2023-04-01T08:58:20;23.33;;;4.75;;
44476;SDS011;30180;44.788;10.366;2023-04-01T09:01:11;35.75;;;4.32;;
44476;SDS011;30180;44.788;10.366;2023-04-01T09:06:56;20.58;;;3.78;;
44476;SDS011;30180;44.788;10.366;2023-04-01T09:16:03;19.35;;;3.60;;
44476;SDS011;30180;44.788;10.366;2023-04-01T09:18:47;15.30;;;3.63;;
44476;SDS011;30180;44.788;10.366;2023-04-01T09:24:33;17.52;;;3.90;;
44476;SDS011;30180;44.788;10.366;2023-04-01T09:27:10;12.15;;;3.63;;
44476;SDS011;30180;44.788;10.366;2023-04-01T09:30:03;10.98;;;3.10;;
44476;SDS011;30180;44.788;10.366;2023-04-01T09:35:50;20.10;;;3.83;;
44476;SDS011;30180;44.788;10.366;2023-04-01T09:38:31;15.20;;;3.00;;
44476;SDS011;30180;44.788;10.366;2023-04-01T09:41:12;13.60;;;3.13;;
44476;SDS011;30180;44.788;10.366;2023-04-01T09:43:56;14.95;;;3.17;;
44476;SDS011;30180;44.788;10.366;2023-04-01T09:46:34;17.58;;;3.08;;
44476;SDS011;30180;44.788;10.366;2023-04-01T09:52:18;11.45;;;3.17;;
44476;SDS011;30180;44.788;10.366;2023-04-01T09:55:00;9.30;;;2.70;;
44476;SDS011;30180;44.788;10.366;2023-04-01T09:57:58;13.70;;;3.55;;
44476;SDS011;30180;44.788;10.366;2023-04-01T10:04:25;14.05;;;3.25;;
44476;SDS011;30180;44.788;10.366;2023-04-01T10:07:22;11.70;;;2.85;;
44476;SDS011;30180;44.788;10.366;2023-04-01T10:10:46;17.05;;;3.60;;
44476;SDS011;30180;44.788;10.366;2023-04-01T10:13:30;12.45;;;3.30;;
44476;SDS011;30180;44.788;10.366;2023-04-01T10:22:40;13.20;;;2.65;;
44476;SDS011;30180;44.788;10.366;2023-04-01T10:31:41;12.73;;;2.70;;
44476;SDS011;30180;44.788;10.366;2023-04-01T10:34:31;12.80;;;2.73;;
44476;SDS011;30180;44.788;10.366;2023-04-01T10:37:26;7.88;;;2.72;;
44476;SDS011;30180;44.788;10.366;2023-04-01T10:49:17;11.27;;;2.90;;
44476;SDS011;30180;44.788;10.366;2023-04-01T10:52:30;12.40;;;2.67;;
44476;SDS011;30180;44.788;10.366;2023-04-01T10:58:53;10.02;;;2.17;;
44476;SDS011;30180;44.788;10.366;2023-04-01T11:02:06;11.10;;;2.72;;
44476;SDS011;30180;44.788;10.366;2023-04-01T11:18:03;7.75;;;2.40;;
44476;SDS011;30180;44.788;10.366;2023-04-01T11:21:07;13.15;;;2.78;;
44476;SDS011;30180;44.788;10.366;2023-04-01T11:24:04;9.95;;;2.38;;
44476;SDS011;30180;44.788;10.366;2023-04-01T11:26:48;7.60;;;3.05;;
44476;SDS011;30180;44.788;10.366;2023-04-01T11:29:30;9.60;;;1.98;;
44476;SDS011;30180;44.788;10.366;2023-04-01T11:32:29;12.05;;;2.10;;
44476;SDS011;30180;44.788;10.366;2023-04-01T11:35:22;10.02;;;2.60;;
44476;SDS011;30180;44.788;10.366;2023-04-01T11:38:12;9.30;;;2.58;;
44476;SDS011;30180;44.788;10.366;2023-04-01T11:41:10;6.90;;;2.30;;
44476;SDS011;30180;44.788;10.366;2023-04-01T11:43:50;9.13;;;2.60;;
44476;SDS011;30180;44.788;10.366;2023-04-01T11:46:36;8.30;;;2.65;;
44476;SDS011;30180;44.788;10.366;2023-04-01T11:49:18;9.23;;;2.70;;
44476;SDS011;30180;44.788;10.366;2023-04-01T11:52:08;10.18;;;2.47;;
44476;SDS011;30180;44.788;10.366;2023-04-01T11:54:52;8.07;;;2.15;;
44476;SDS011;30180;44.788;10.366;2023-04-01T11:57:46;5.88;;;2.40;;
44476;SDS011;30180;44.788;10.366;2023-04-01T12:00:41;9.98;;;3.10;;
44476;SDS011;30180;44.788;10.366;2023-04-01T12:03:34;7.68;;;2.22;;
44476;SDS011;30180;44.788;10.366;2023-04-01T12:06:11;9.05;;;2.55;;
44476;SDS011;30180;44.788;10.366;2023-04-01T12:08:48;7.25;;;2.17;;
44476;SDS011;30180;44.788;10.366;2023-04-01T12:11:25;8.95;;;2.40;;
44476;SDS011;30180;44.788;10.366;2023-04-01T12:14:05;7.90;;;2.25;;
44476;SDS011;30180;44.788;10.366;2023-04-01T12:16:50;8.45;;;2.13;;
44476;SDS011;30180;44.788;10.366;2023-04-01T12:19:30;7.80;;;1.90;;
44476;SDS011;30180;44.788;10.366;2023-04-01T12:22:10;8.65;;;2.28;;
44476;SDS011;30180;44.788;10.366;2023-04-01T12:24:52;7.47;;;2.03;;
44476;SDS011;30180;44.788;10.366;2023-04-01T12:33:26;8.88;;;2.47;;
44476;SDS011;30180;44.788;10.366;2023-04-01T12:36:13;11.50;;;2.55;;
44476;SDS011;30180;44.788;10.366;2023-04-01T12:38:53;10.23;;;2.47;;
44476;SDS011;30180;44.788;10.366;2023-04-01T12:41:39;11.65;;;2.17;;
44476;SDS011;30180;44.788;10.366;2023-04-01T12:44:23;10.02;;;2.60;;
44476;SDS011;30180;44.788;10.366;2023-04-01T12:47:07;7.70;;;2.17;;
44476;SDS011;30180;44.788;10.366;2023-04-01T12:53:06;8.07;;;2.25;;
44476;SDS011;30180;44.788;10.366;2023-04-01T12:55:48;6.65;;;1.98;;
44476;SDS011;30180;44.788;10.366;2023-04-01T13:01:30;9.35;;;2.83;;
44476;SDS011;30180;44.788;10.366;2023-04-01T13:04:35;11.40;;;2.35;;
44476;SDS011;30180;44.788;10.366;2023-04-01T13:10:31;8.27;;;2.03;;
44476;SDS011;30180;44.788;10.366;2023-04-01T13:13:21;7.15;;;2.40;;
44476;SDS011;30180;44.788;10.366;2023-04-01T13:16:02;7.97;;;2.33;;
44476;SDS011;30180;44.788;10.366;2023-04-01T13:18:37;13.07;;;2.70;;
44476;SDS011;30180;44.788;10.366;2023-04-01T13:21:13;8.32;;;2.33;;
44476;SDS011;30180;44.788;10.366;2023-04-01T13:23:52;8.95;;;2.33;;
44476;SDS011;30180;44.788;10.366;2023-04-01T13:26:29;9.10;;;2.15;;
44476;SDS011;30180;44.788;10.366;2023-04-01T13:29:07;7.97;;;2.20;;
44476;SDS011;30180;44.788;10.366;2023-04-01T13:31:45;5.70;;;2.58;;
44476;SDS011;30180;44.788;10.366;2023-04-01T13:34:27;9.10;;;2.10;;
44476;SDS011;30180;44.788;10.366;2023-04-01T13:39:57;9.90;;;2.28;;
44476;SDS011;30180;44.788;10.366;2023-04-01T13:42:40;7.32;;;2.45;;
44476;SDS011;30180;44.788;10.366;2023-04-01T13:45:14;6.82;;;1.98;;
44476;SDS011;30180;44.788;10.366;2023-04-01T13:47:55;8.95;;;2.47;;
44476;SDS011;30180;44.788;10.366;2023-04-01T13:50:48;9.35;;;2.00;;
44476;SDS011;30180;44.788;10.366;2023-04-01T13:54:00;5.90;;;2.05;;
44476;SDS011;30180;44.788;10.366;2023-04-01T13:57:03;6.70;;;2.00;;
44476;SDS011;30180;44.788;10.366;2023-04-01T14:02:50;5.65;;;1.70;;
44476;SDS011;30180;44.788;10.366;2023-04-01T14:05:40;9.27;;;2.22;;
44476;SDS011;30180;44.788;10.366;2023-04-01T14:08:20;8.38;;;2.05;;
44476;SDS011;30180;44.788;10.366;2023-04-01T14:11:06;6.30;;;1.95;;
44476;SDS011;30180;44.788;10.366;2023-04-01T14:13:41;6.63;;;1.83;;
44476;SDS011;30180;44.788;10.366;2023-04-01T14:16:26;7.47;;;1.80;;
44476;SDS011;30180;44.788;10.366;2023-04-01T14:19:12;5.80;;;2.05;;
44476;SDS011;30180;44.788;10.366;2023-04-01T14:21:58;6.45;;;2.03;;
44476;SDS011;30180;44.788;10.366;2023-04-01T14:24:40;5.40;;;1.90;;
44476;SDS011;30180;44.788;10.366;2023-04-01T14:27:26;6.75;;;2.33;;
44476;SDS011;30180;44.788;10.366;2023-04-01T14:30:20;6.50;;;1.92;;
44476;SDS011;30180;44.788;10.366;2023-04-01T14:33:05;7.07;;;2.00;;
44476;SDS011;30180;44.788;10.366;2023-04-01T14:35:46;6.32;;;1.85;;
44476;SDS011;30180;44.788;10.366;2023-04-01T14:38:25;5.35;;;1.45;;
44476;SDS011;30180;44.788;10.366;2023-04-01T14:41:00;5.22;;;2.15;;
44476;SDS011;30180;44.788;10.366;2023-04-01T14:47:03;7.20;;;1.92;;
44476;SDS011;30180;44.788;10.366;2023-04-01T14:49:39;6.72;;;1.92;;
44476;SDS011;30180;44.788;10.366;2023-04-01T14:52:11;4.45;;;1.83;;
44476;SDS011;30180;44.788;10.366;2023-04-01T14:54:44;5.65;;;1.75;;
44476;SDS011;30180;44.788;10.366;2023-04-01T14:57:14;4.97;;;1.67;;
44476;SDS011;30180;44.788;10.366;2023-04-01T14:59:49;5.05;;;1.92;;
44476;SDS011;30180;44.788;10.366;2023-04-01T15:02:28;5.15;;;1.67;;
44476;SDS011;30180;44.788;10.366;2023-04-01T15:05:15;4.32;;;1.70;;
44476;SDS011;30180;44.788;10.366;2023-04-01T15:10:47;6.22;;;1.80;;
44476;SDS011;30180;44.788;10.366;2023-04-01T15:13:31;4.65;;;1.67;;
44476;SDS011;30180;44.788;10.366;2023-04-01T15:16:20;5.90;;;1.58;;
44476;SDS011;30180;44.788;10.366;2023-04-01T15:18:54;7.13;;;1.88;;
44476;SDS011;30180;44.788;10.366;2023-04-01T15:21:37;8.70;;;2.30;;
44476;SDS011;30180;44.788;10.366;2023-04-01T15:24:17;6.40;;;1.67;;
44476;SDS011;30180;44.788;10.366;2023-04-01T15:27:08;6.28;;;1.95;;
44476;SDS011;30180;44.788;10.366;2023-04-01T15:29:53;4.88;;;1.77;;
44476;SDS011;30180;44.788;10.366;2023-04-01T15:32:37;6.90;;;2.00;;
44476;SDS011;30180;44.788;10.366;2023-04-01T15:35:15;5.10;;;2.00;;
44476;SDS011;30180;44.788;10.366;2023-04-01T15:37:52;6.43;;;1.60;;
44476;SDS011;30180;44.788;10.366;2023-04-01T15:40:26;4.68;;;1.60;;
44476;SDS011;30180;44.788;10.366;2023-04-01T15:43:01;7.80;;;2.05;;
44476;SDS011;30180;44.788;10.366;2023-04-01T15:45:40;4.93;;;1.70;;
44476;SDS011;30180;44.788;10.366;2023-04-01T15:48:23;3.63;;;1.58;;
44476;SDS011;30180;44.788;10.366;2023-04-01T15:51:11;6.40;;;2.25;;
44476;SDS011;30180;44.788;10.366;2023-04-01T15:56:53;7.28;;;1.77;;
44476;SDS011;30180;44.788;10.366;2023-04-01T15:59:41;5.57;;;1.80;;
44476;SDS011;30180;44.788;10.366;2023-04-01T16:02:21;6.82;;;1.70;;
44476;SDS011;30180;44.788;10.366;2023-04-01T16:05:00;5.63;;;1.88;;
44476;SDS011;30180;44.788;10.366;2023-04-01T16:07:43;6.68;;;2.03;;
44476;SDS011;30180;44.788;10.366;2023-04-01T16:10:24;4.20;;;1.52;;
44476;SDS011;30180;44.788;10.366;2023-04-01T16:13:17;4.22;;;1.50;;
44476;SDS011;30180;44.788;10.366;2023-04-01T16:15:57;5.68;;;1.52;;
44476;SDS011;30180;44.788;10.366;2023-04-01T16:18:43;5.18;;;1.50;;
44476;SDS011;30180;44.788;10.366;2023-04-01T16:21:27;5.30;;;1.80;;
44476;SDS011;30180;44.788;10.366;2023-04-01T16:24:05;4.50;;;1.55;;
44476;SDS011;30180;44.788;10.366;2023-04-01T16:26:44;4.45;;;1.30;;
44476;SDS011;30180;44.788;10.366;2023-04-01T16:29:21;5.88;;;2.03;;
44476;SDS011;30180;44.788;10.366;2023-04-01T16:31:58;3.80;;;1.50;;
44476;SDS011;30180;44.788;10.366;2023-04-01T16:34:39;3.55;;;1.30;;
44476;SDS011;30180;44.788;10.366;2023-04-01T16:37:13;3.70;;;1.48;;
44476;SDS011;30180;44.788;10.366;2023-04-01T16:39:47;5.95;;;1.73;;
44476;SDS011;30180;44.788;10.366;2023-04-01T16:42:32;5.53;;;1.52;;
44476;SDS011;30180;44.788;10.366;2023-04-01T16:45:15;5.00;;;1.88;;
44476;SDS011;30180;44.788;10.366;2023-04-01T16:47:51;5.55;;;1.55;;
44476;SDS011;30180;44.788;10.366;2023-04-01T16:50:24;7.45;;;1.70;;
44476;SDS011;30180;44.788;10.366;2023-04-01T16:53:00;3.75;;;1.40;;
44476;SDS011;30180;44.788;10.366;2023-04-01T16:55:45;3.13;;;1.23;;
44476;SDS011;30180;44.788;10.366;2023-04-01T16:58:18;5.00;;;1.50;;
44476;SDS011;30180;44.788;10.366;2023-04-01T17:00:52;5.25;;;1.63;;
44476;SDS011;30180;44.788;10.366;2023-04-01T17:03:28;6.57;;;1.45;;
44476;SDS011;30180;44.788;10.366;2023-04-01T17:06:07;5.70;;;1.67;;
44476;SDS011;30180;44.788;10.366;2023-04-01T17:09:01;4.95;;;1.60;;
44476;SDS011;30180;44.788;10.366;2023-04-01T17:11:47;5.32;;;1.88;;
44476;SDS011;30180;44.788;10.366;2023-04-01T17:14:23;4.70;;;1.48;;
44476;SDS011;30180;44.788;10.366;2023-04-01T17:17:03;3.13;;;1.40;;
44476;SDS011;30180;44.788;10.366;2023-04-01T17:20:03;5.75;;;1.40;;
44476;SDS011;30180;44.788;10.366;2023-04-01T17:22:49;6.15;;;1.60;;
44476;SDS011;30180;44.788;10.366;2023-04-01T17:25:31;5.47;;;1.60;;
44476;SDS011;30180;44.788;10.366;2023-04-01T17:28:09;3.88;;;1.48;;
44476;SDS011;30180;44.788;10.366;2023-04-01T17:30:49;5.30;;;1.65;;
44476;SDS011;30180;44.788;10.366;2023-04-01T17:33:25;4.40;;;1.10;;
44476;SDS011;30180;44.788;10.366;2023-04-01T17:36:16;4.97;;;1.45;;